sensor_id;sensor_type;location;lat;lon;timestamp;P1;durP1;ratioP1;P2;durP2;ratioP2
10412;SDS011;5252;42.602;23.386;2022-07-18T00:01:04;3.05;;;1.80;;
10412;SDS011;5252;42.602;23.386;2022-07-18T00:03:30;2.10;;;1.70;;
10412;SDS011;5252;42.602;23.386;2022-07-18T00:05:58;2.15;;;1.95;;
10412;SDS011;5252;42.602;23.386;2022-07-18T00:08:25;3.13;;;1.90;;
10412;SDS011;5252;42.602;23.386;2022-07-18T00:10:52;2.35;;;1.90;;
10412;SDS011;5252;42.602;23.386;2022-07-18T00:13:18;2.15;;;1.80;;
10412;SDS011;5252;42.602;23.386;2022-07-18T00:15:45;2.22;;;1.73;;
10412;SDS011;5252;42.602;23.386;2022-07-18T00:18:11;2.85;;;1.60;;
10412;SDS011;5252;42.602;23.386;2022-07-18T00:20:38;3.30;;;1.90;;
10412;SDS011;5252;42.602;23.386;2022-07-18T00:23:06;2.00;;;1.63;;
10412;SDS011;5252;42.602;23.386;2022-07-18T00:25:33;3.00;;;1.98;;
10412;SDS011;5252;42.602;23.386;2022-07-18T00:27:59;1.67;;;1.58;;
10412;SDS011;5252;42.602;23.386;2022-07-18T00:30:26;2.38;;;1.77;;
10412;SDS011;5252;42.602;23.386;2022-07-18T00:32:53;2.58;;;2.03;;
10412;SDS011;5252;42.602;23.386;2022-07-18T00:35:19;3.33;;;1.70;;
10412;SDS011;5252;42.602;23.386;2022-07-18T00:37:46;2.53;;;1.80;;
10412;SDS011;5252;42.602;23.386;2022-07-18T00:40:14;1.70;;;1.58;;
10412;SDS011;5252;42.602;23.386;2022-07-18T00:42:40;2.10;;;1.90;;
10412;SDS011;5252;42.602;23.386;2022-07-18T00:45:07;3.35;;;1.95;;
10412;SDS011;5252;42.602;23.386;2022-07-18T00:47:34;3.50;;;1.92;;
10412;SDS011;5252;42.602;23.386;2022-07-18T00:50:01;2.40;;;2.20;;
10412;SDS011;5252;42.602;23.386;2022-07-18T00:52:28;2.28;;;2.08;;
10412;SDS011;5252;42.602;23.386;2022-07-18T00:54:55;2.55;;;1.88;;
10412;SDS011;5252;42.602;23.386;2022-07-18T00:57:23;3.92;;;1.77;;
10412;SDS011;5252;42.602;23.386;2022-07-18T00:59:50;2.42;;;1.75;;
10412;SDS011;5252;42.602;23.386;2022-07-18T01:02:34;2.30;;;1.60;;
10412;SDS011;5252;42.602;23.386;2022-07-18T01:05:01;2.33;;;1.70;;
10412;SDS011;5252;42.602;23.386;2022-07-18T01:07:28;1.58;;;1.48;;
10412;SDS011;5252;42.602;23.386;2022-07-18T01:09:54;2.80;;;1.70;;
10412;SDS011;5252;42.602;23.386;2022-07-18T01:12:22;2.33;;;1.55;;
10412;SDS011;5252;42.602;23.386;2022-07-18T01:14:49;2.22;;;1.50;;
10412;SDS011;5252;42.602;23.386;2022-07-18T01:17:16;2.60;;;1.50;;
10412;SDS011;5252;42.602;23.386;2022-07-18T01:19:43;1.55;;;1.45;;
10412;SDS011;5252;42.602;23.386;2022-07-18T01:22:12;2.47;;;1.40;;
10412;SDS011;5252;42.602;23.386;2022-07-18T01:24:41;1.70;;;1.60;;
10412;SDS011;5252;42.602;23.386;2022-07-18T01:27:08;2.05;;;1.40;;
10412;SDS011;5252;42.602;23.386;2022-07-18T01:29:35;1.00;;;1.00;;
10412;SDS011;5252;42.602;23.386;2022-07-18T01:32:05;1.80;;;1.30;;
10412;SDS011;5252;42.602;23.386;2022-07-18T01:34:32;1.90;;;1.33;;
10412;SDS011;5252;42.602;23.386;2022-07-18T01:36:58;1.30;;;1.20;;
10412;SDS011;5252;42.602;23.386;2022-07-18T01:39:27;3.53;;;1.25;;
10412;SDS011;5252;42.602;23.386;2022-07-18T01:41:56;2.50;;;1.30;;
10412;SDS011;5252;42.602;23.386;2022-07-18T01:44:23;1.92;;;1.02;;
10412;SDS011;5252;42.602;23.386;2022-07-18T01:46:50;1.70;;;1.15;;
10412;SDS011;5252;42.602;23.386;2022-07-18T01:49:16;1.65;;;1.10;;
10412;SDS011;5252;42.602;23.386;2022-07-18T01:51:44;3.15;;;1.30;;
10412;SDS011;5252;42.602;23.386;2022-07-18T01:54:11;2.90;;;1.38;;
10412;SDS011;5252;42.602;23.386;2022-07-18T01:56:39;2.30;;;1.08;;
10412;SDS011;5252;42.602;23.386;2022-07-18T01:59:05;1.40;;;1.17;;
10412;SDS011;5252;42.602;23.386;2022-07-18T02:01:32;1.23;;;1.10;;
10412;SDS011;5252;42.602;23.386;2022-07-18T02:03:58;1.73;;;1.25;;
10412;SDS011;5252;42.602;23.386;2022-07-18T02:06:25;1.30;;;1.13;;
10412;SDS011;5252;42.602;23.386;2022-07-18T02:08:52;1.20;;;1.10;;
10412;SDS011;5252;42.602;23.386;2022-07-18T02:11:18;1.60;;;1.13;;
10412;SDS011;5252;42.602;23.386;2022-07-18T02:13:46;1.35;;;1.00;;
10412;SDS011;5252;42.602;23.386;2022-07-18T02:16:13;1.20;;;1.10;;
10412;SDS011;5252;42.602;23.386;2022-07-18T02:18:39;1.40;;;1.30;;
10412;SDS011;5252;42.602;23.386;2022-07-18T02:21:06;3.22;;;1.20;;
10412;SDS011;5252;42.602;23.386;2022-07-18T02:23:33;1.42;;;0.98;;
10412;SDS011;5252;42.602;23.386;2022-07-18T02:26:00;2.35;;;1.10;;
10412;SDS011;5252;42.602;23.386;2022-07-18T02:28:27;1.20;;;1.10;;
10412;SDS011;5252;42.602;23.386;2022-07-18T02:30:54;1.10;;;1.00;;
10412;SDS011;5252;42.602;23.386;2022-07-18T02:33:21;1.73;;;1.27;;
10412;SDS011;5252;42.602;23.386;2022-07-18T02:35:48;1.52;;;1.10;;
10412;SDS011;5252;42.602;23.386;2022-07-18T02:38:14;1.95;;;1.00;;
10412;SDS011;5252;42.602;23.386;2022-07-18T02:40:41;1.00;;;0.90;;
10412;SDS011;5252;42.602;23.386;2022-07-18T02:43:07;5.22;;;1.10;;
10412;SDS011;5252;42.602;23.386;2022-07-18T02:45:34;1.63;;;1.20;;
10412;SDS011;5252;42.602;23.386;2022-07-18T02:48:02;1.40;;;0.98;;
10412;SDS011;5252;42.602;23.386;2022-07-18T02:50:29;2.50;;;1.13;;
10412;SDS011;5252;42.602;23.386;2022-07-18T02:52:55;1.20;;;1.10;;
10412;SDS011;5252;42.602;23.386;2022-07-18T02:55:22;2.63;;;1.15;;
10412;SDS011;5252;42.602;23.386;2022-07-18T02:57:49;2.08;;;1.20;;
10412;SDS011;5252;42.602;23.386;2022-07-18T03:00:16;1.60;;;1.10;;
10412;SDS011;5252;42.602;23.386;2022-07-18T03:02:43;1.42;;;1.10;;
10412;SDS011;5252;42.602;23.386;2022-07-18T03:05:11;2.78;;;0.98;;
10412;SDS011;5252;42.602;23.386;2022-07-18T03:07:38;3.63;;;1.38;;
10412;SDS011;5252;42.602;23.386;2022-07-18T03:10:05;2.38;;;0.90;;
10412;SDS011;5252;42.602;23.386;2022-07-18T03:33:18;1.52;;;1.10;;
10412;SDS011;5252;42.602;23.386;2022-07-18T03:35:45;1.55;;;1.10;;
10412;SDS011;5252;42.602;23.386;2022-07-18T03:38:12;1.85;;;1.08;;
10412;SDS011;5252;42.602;23.386;2022-07-18T03:40:38;1.67;;;1.00;;
10412;SDS011;5252;42.602;23.386;2022-07-18T03:43:05;2.30;;;1.00;;
10412;SDS011;5252;42.602;23.386;2022-07-18T03:45:31;1.67;;;1.00;;
10412;SDS011;5252;42.602;23.386;2022-07-18T03:47:58;1.05;;;0.93;;
10412;SDS011;5252;42.602;23.386;2022-07-18T03:50:26;2.15;;;1.02;;
10412;SDS011;5252;42.602;23.386;2022-07-18T03:52:53;2.20;;;1.10;;
10412;SDS011;5252;42.602;23.386;2022-07-18T03:55:20;2.45;;;1.00;;
10412;SDS011;5252;42.602;23.386;2022-07-18T03:57:47;1.58;;;1.20;;
10412;SDS011;5252;42.602;23.386;2022-07-18T04:00:14;1.63;;;1.10;;
10412;SDS011;5252;42.602;23.386;2022-07-18T04:02:41;1.27;;;1.08;;
10412;SDS011;5252;42.602;23.386;2022-07-18T04:05:08;1.48;;;1.00;;
10412;SDS011;5252;42.602;23.386;2022-07-18T04:07:36;1.60;;;1.00;;
10412;SDS011;5252;42.602;23.386;2022-07-18T04:10:03;1.40;;;0.88;;
10412;SDS011;5252;42.602;23.386;2022-07-18T04:12:30;1.50;;;0.80;;
10412;SDS011;5252;42.602;23.386;2022-07-18T04:14:57;1.25;;;1.10;;
10412;SDS011;5252;42.602;23.386;2022-07-18T04:17:23;3.08;;;1.30;;
10412;SDS011;5252;42.602;23.386;2022-07-18T04:19:50;2.85;;;0.90;;
10412;SDS011;5252;42.602;23.386;2022-07-18T04:22:17;1.67;;;0.90;;
10412;SDS011;5252;42.602;23.386;2022-07-18T04:24:45;1.35;;;1.08;;
10412;SDS011;5252;42.602;23.386;2022-07-18T04:27:11;1.20;;;1.10;;
10412;SDS011;5252;42.602;23.386;2022-07-18T04:29:38;3.60;;;1.20;;
10412;SDS011;5252;42.602;23.386;2022-07-18T04:32:05;2.97;;;1.50;;
10412;SDS011;5252;42.602;23.386;2022-07-18T04:34:32;1.40;;;1.10;;
10412;SDS011;5252;42.602;23.386;2022-07-18T04:36:59;1.55;;;1.02;;
10412;SDS011;5252;42.602;23.386;2022-07-18T04:39:25;1.85;;;1.00;;
10412;SDS011;5252;42.602;23.386;2022-07-18T04:41:53;2.50;;;1.13;;
10412;SDS011;5252;42.602;23.386;2022-07-18T04:44:20;3.35;;;1.10;;
10412;SDS011;5252;42.602;23.386;2022-07-18T04:46:47;4.70;;;1.38;;
10412;SDS011;5252;42.602;23.386;2022-07-18T04:49:13;1.45;;;1.10;;
10412;SDS011;5252;42.602;23.386;2022-07-18T04:51:40;1.88;;;1.13;;
10412;SDS011;5252;42.602;23.386;2022-07-18T04:54:06;1.50;;;1.10;;
10412;SDS011;5252;42.602;23.386;2022-07-18T04:56:33;5.13;;;1.40;;
10412;SDS011;5252;42.602;23.386;2022-07-18T04:59:01;3.80;;;1.50;;
10412;SDS011;5252;42.602;23.386;2022-07-18T05:01:28;1.83;;;1.25;;
10412;SDS011;5252;42.602;23.386;2022-07-18T05:03:54;2.17;;;1.13;;
10412;SDS011;5252;42.602;23.386;2022-07-18T05:06:21;3.78;;;1.20;;
10412;SDS011;5252;42.602;23.386;2022-07-18T05:08:48;2.05;;;1.40;;
10412;SDS011;5252;42.602;23.386;2022-07-18T05:11:15;3.40;;;1.10;;
10412;SDS011;5252;42.602;23.386;2022-07-18T05:13:41;3.95;;;1.42;;
10412;SDS011;5252;42.602;23.386;2022-07-18T05:16:09;3.58;;;1.15;;
10412;SDS011;5252;42.602;23.386;2022-07-18T05:18:36;2.15;;;1.30;;
10412;SDS011;5252;42.602;23.386;2022-07-18T05:21:03;2.08;;;1.20;;
10412;SDS011;5252;42.602;23.386;2022-07-18T05:23:29;3.75;;;1.20;;
10412;SDS011;5252;42.602;23.386;2022-07-18T05:25:56;5.32;;;1.30;;
10412;SDS011;5252;42.602;23.386;2022-07-18T05:28:22;1.85;;;1.20;;
10412;SDS011;5252;42.602;23.386;2022-07-18T05:30:49;5.15;;;1.42;;
10412;SDS011;5252;42.602;23.386;2022-07-18T05:33:17;2.80;;;1.38;;
10412;SDS011;5252;42.602;23.386;2022-07-18T05:35:44;2.22;;;1.55;;
10412;SDS011;5252;42.602;23.386;2022-07-18T05:38:10;4.53;;;1.33;;
10412;SDS011;5252;42.602;23.386;2022-07-18T05:40:37;2.90;;;1.25;;
10412;SDS011;5252;42.602;23.386;2022-07-18T05:43:03;3.33;;;1.30;;
10412;SDS011;5252;42.602;23.386;2022-07-18T05:45:30;1.73;;;1.20;;
10412;SDS011;5252;42.602;23.386;2022-07-18T05:47:57;2.65;;;1.40;;
10412;SDS011;5252;42.602;23.386;2022-07-18T05:50:25;2.92;;;1.30;;
10412;SDS011;5252;42.602;23.386;2022-07-18T05:52:52;5.53;;;1.30;;
10412;SDS011;5252;42.602;23.386;2022-07-18T05:55:18;2.92;;;1.50;;
10412;SDS011;5252;42.602;23.386;2022-07-18T05:57:45;1.73;;;1.25;;
10412;SDS011;5252;42.602;23.386;2022-07-18T06:00:12;3.08;;;1.42;;
10412;SDS011;5252;42.602;23.386;2022-07-18T06:02:39;3.53;;;1.05;;
10412;SDS011;5252;42.602;23.386;2022-07-18T06:05:06;4.72;;;1.58;;
10412;SDS011;5252;42.602;23.386;2022-07-18T06:07:34;2.22;;;1.40;;
10412;SDS011;5252;42.602;23.386;2022-07-18T06:10:01;1.42;;;1.13;;
10412;SDS011;5252;42.602;23.386;2022-07-18T06:12:28;3.25;;;2.10;;
10412;SDS011;5252;42.602;23.386;2022-07-18T06:14:55;2.53;;;1.27;;
10412;SDS011;5252;42.602;23.386;2022-07-18T06:17:22;3.45;;;1.65;;
10412;SDS011;5252;42.602;23.386;2022-07-18T06:19:49;4.78;;;2.70;;
10412;SDS011;5252;42.602;23.386;2022-07-18T06:22:16;3.15;;;1.20;;
10412;SDS011;5252;42.602;23.386;2022-07-18T06:24:44;2.33;;;1.30;;
10412;SDS011;5252;42.602;23.386;2022-07-18T06:27:10;6.90;;;1.77;;
10412;SDS011;5252;42.602;23.386;2022-07-18T06:29:37;1.80;;;1.30;;
10412;SDS011;5252;42.602;23.386;2022-07-18T06:32:03;4.55;;;1.70;;
10412;SDS011;5252;42.602;23.386;2022-07-18T06:34:30;3.05;;;1.10;;
10412;SDS011;5252;42.602;23.386;2022-07-18T06:36:57;3.35;;;1.20;;
10412;SDS011;5252;42.602;23.386;2022-07-18T06:39:23;2.10;;;1.20;;
10412;SDS011;5252;42.602;23.386;2022-07-18T06:41:51;3.13;;;1.25;;
10412;SDS011;5252;42.602;23.386;2022-07-18T06:44:18;2.72;;;1.40;;
10412;SDS011;5252;42.602;23.386;2022-07-18T06:46:44;4.05;;;1.20;;
10412;SDS011;5252;42.602;23.386;2022-07-18T06:49:11;6.20;;;1.40;;
10412;SDS011;5252;42.602;23.386;2022-07-18T06:51:38;1.30;;;1.02;;
10412;SDS011;5252;42.602;23.386;2022-07-18T06:54:04;3.53;;;1.40;;
10412;SDS011;5252;42.602;23.386;2022-07-18T06:56:31;2.30;;;1.08;;
10412;SDS011;5252;42.602;23.386;2022-07-18T06:58:59;1.95;;;1.20;;
10412;SDS011;5252;42.602;23.386;2022-07-18T07:01:25;1.83;;;1.00;;
10412;SDS011;5252;42.602;23.386;2022-07-18T07:03:52;2.95;;;1.15;;
10412;SDS011;5252;42.602;23.386;2022-07-18T07:06:18;5.32;;;1.10;;
10412;SDS011;5252;42.602;23.386;2022-07-18T07:08:45;3.58;;;1.17;;
10412;SDS011;5252;42.602;23.386;2022-07-18T07:11:11;1.40;;;1.00;;
10412;SDS011;5252;42.602;23.386;2022-07-18T07:13:39;4.05;;;1.30;;
10412;SDS011;5252;42.602;23.386;2022-07-18T07:16:07;2.63;;;1.23;;
10412;SDS011;5252;42.602;23.386;2022-07-18T07:18:33;4.15;;;1.23;;
10412;SDS011;5252;42.602;23.386;2022-07-18T07:21:00;5.10;;;1.33;;
10412;SDS011;5252;42.602;23.386;2022-07-18T07:23:27;4.18;;;0.95;;
10412;SDS011;5252;42.602;23.386;2022-07-18T07:25:53;1.80;;;1.10;;
10412;SDS011;5252;42.602;23.386;2022-07-18T07:28:20;3.53;;;1.27;;
10412;SDS011;5252;42.602;23.386;2022-07-18T07:30:47;2.83;;;1.20;;
10412;SDS011;5252;42.602;23.386;2022-07-18T07:33:15;1.90;;;1.17;;
10412;SDS011;5252;42.602;23.386;2022-07-18T07:35:41;2.85;;;1.30;;
10412;SDS011;5252;42.602;23.386;2022-07-18T07:38:08;2.65;;;1.27;;
10412;SDS011;5252;42.602;23.386;2022-07-18T07:40:35;6.22;;;1.30;;
10412;SDS011;5252;42.602;23.386;2022-07-18T07:43:05;2.40;;;1.10;;
10412;SDS011;5252;42.602;23.386;2022-07-18T07:45:32;1.42;;;1.00;;
10412;SDS011;5252;42.602;23.386;2022-07-18T07:47:59;3.20;;;1.25;;
10412;SDS011;5252;42.602;23.386;2022-07-18T07:50:27;3.40;;;1.27;;
10412;SDS011;5252;42.602;23.386;2022-07-18T07:52:55;2.53;;;1.40;;
10412;SDS011;5252;42.602;23.386;2022-07-18T07:55:21;3.65;;;1.40;;
10412;SDS011;5252;42.602;23.386;2022-07-18T07:57:48;3.13;;;1.80;;
10412;SDS011;5252;42.602;23.386;2022-07-18T08:00:15;3.35;;;1.50;;
10412;SDS011;5252;42.602;23.386;2022-07-18T08:02:51;2.83;;;1.20;;
10412;SDS011;5252;42.602;23.386;2022-07-18T08:05:18;2.60;;;1.20;;
10412;SDS011;5252;42.602;23.386;2022-07-18T08:07:46;2.45;;;1.60;;
10412;SDS011;5252;42.602;23.386;2022-07-18T08:10:13;2.47;;;1.23;;
10412;SDS011;5252;42.602;23.386;2022-07-18T08:12:40;4.13;;;1.42;;
10412;SDS011;5252;42.602;23.386;2022-07-18T08:15:07;2.17;;;1.00;;
10412;SDS011;5252;42.602;23.386;2022-07-18T08:17:34;3.67;;;1.20;;
10412;SDS011;5252;42.602;23.386;2022-07-18T08:20:01;3.38;;;1.58;;
10412;SDS011;5252;42.602;23.386;2022-07-18T08:22:27;5.03;;;1.30;;
10412;SDS011;5252;42.602;23.386;2022-07-18T08:24:55;5.95;;;1.48;;
10412;SDS011;5252;42.602;23.386;2022-07-18T08:27:22;4.65;;;1.30;;
10412;SDS011;5252;42.602;23.386;2022-07-18T08:29:49;3.17;;;1.25;;
10412;SDS011;5252;42.602;23.386;2022-07-18T08:32:15;1.70;;;1.17;;
10412;SDS011;5252;42.602;23.386;2022-07-18T08:34:42;2.42;;;1.25;;
10412;SDS011;5252;42.602;23.386;2022-07-18T08:37:08;3.08;;;1.10;;
10412;SDS011;5252;42.602;23.386;2022-07-18T08:39:35;2.60;;;1.05;;
10412;SDS011;5252;42.602;23.386;2022-07-18T08:42:03;2.00;;;0.90;;
10412;SDS011;5252;42.602;23.386;2022-07-18T08:44:31;2.95;;;1.10;;
10412;SDS011;5252;42.602;23.386;2022-07-18T08:46:58;1.88;;;0.90;;
10412;SDS011;5252;42.602;23.386;2022-07-18T08:49:26;1.55;;;0.93;;
10412;SDS011;5252;42.602;23.386;2022-07-18T08:51:52;2.00;;;1.17;;
10412;SDS011;5252;42.602;23.386;2022-07-18T08:54:20;1.65;;;0.95;;
10412;SDS011;5252;42.602;23.386;2022-07-18T08:56:46;1.05;;;0.80;;
10412;SDS011;5252;42.602;23.386;2022-07-18T08:59:14;6.70;;;1.48;;
10412;SDS011;5252;42.602;23.386;2022-07-18T09:01:41;1.77;;;1.17;;
10412;SDS011;5252;42.602;23.386;2022-07-18T09:04:08;2.67;;;1.30;;
10412;SDS011;5252;42.602;23.386;2022-07-18T09:06:46;2.40;;;1.30;;
10412;SDS011;5252;42.602;23.386;2022-07-18T09:09:13;2.80;;;0.93;;
10412;SDS011;5252;42.602;23.386;2022-07-18T09:14:33;1.60;;;1.35;;
10412;SDS011;5252;42.602;23.386;2022-07-18T09:17:00;3.53;;;1.20;;
10412;SDS011;5252;42.602;23.386;2022-07-18T09:19:27;2.05;;;1.30;;
10412;SDS011;5252;42.602;23.386;2022-07-18T09:21:54;2.67;;;1.20;;
10412;SDS011;5252;42.602;23.386;2022-07-18T09:24:20;2.15;;;1.13;;
10412;SDS011;5252;42.602;23.386;2022-07-18T09:26:48;1.92;;;1.20;;
10412;SDS011;5252;42.602;23.386;2022-07-18T09:29:16;5.10;;;1.35;;
10412;SDS011;5252;42.602;23.386;2022-07-18T09:31:47;1.83;;;1.30;;
10412;SDS011;5252;42.602;23.386;2022-07-18T09:34:14;2.47;;;1.55;;
10412;SDS011;5252;42.602;23.386;2022-07-18T09:36:57;2.05;;;1.20;;
10412;SDS011;5252;42.602;23.386;2022-07-18T09:39:24;4.70;;;1.60;;
10412;SDS011;5252;42.602;23.386;2022-07-18T09:41:50;3.03;;;1.30;;
10412;SDS011;5252;42.602;23.386;2022-07-18T09:44:18;3.80;;;1.50;;
10412;SDS011;5252;42.602;23.386;2022-07-18T09:46:59;4.72;;;1.30;;
10412;SDS011;5252;42.602;23.386;2022-07-18T09:49:28;7.75;;;1.90;;
10412;SDS011;5252;42.602;23.386;2022-07-18T09:52:01;6.57;;;1.50;;
10412;SDS011;5252;42.602;23.386;2022-07-18T09:54:34;8.02;;;1.52;;
10412;SDS011;5252;42.602;23.386;2022-07-18T09:57:01;4.15;;;1.40;;
10412;SDS011;5252;42.602;23.386;2022-07-18T09:59:27;4.22;;;1.63;;
10412;SDS011;5252;42.602;23.386;2022-07-18T10:01:54;4.25;;;1.30;;
10412;SDS011;5252;42.602;23.386;2022-07-18T10:04:22;1.83;;;1.30;;
10412;SDS011;5252;42.602;23.386;2022-07-18T10:06:49;1.73;;;1.40;;
10412;SDS011;5252;42.602;23.386;2022-07-18T10:09:15;3.60;;;1.48;;
10412;SDS011;5252;42.602;23.386;2022-07-18T10:11:42;6.60;;;1.40;;
10412;SDS011;5252;42.602;23.386;2022-07-18T10:14:08;3.00;;;1.52;;
10412;SDS011;5252;42.602;23.386;2022-07-18T10:16:36;4.03;;;1.40;;
10412;SDS011;5252;42.602;23.386;2022-07-18T10:19:04;4.22;;;1.45;;
10412;SDS011;5252;42.602;23.386;2022-07-18T10:21:32;2.28;;;1.30;;
10412;SDS011;5252;42.602;23.386;2022-07-18T10:23:59;2.92;;;1.50;;
10412;SDS011;5252;42.602;23.386;2022-07-18T10:26:27;3.33;;;1.23;;
10412;SDS011;5252;42.602;23.386;2022-07-18T10:29:12;3.28;;;1.50;;
10412;SDS011;5252;42.602;23.386;2022-07-18T10:31:40;2.03;;;1.23;;
10412;SDS011;5252;42.602;23.386;2022-07-18T10:34:11;2.10;;;1.20;;
10412;SDS011;5252;42.602;23.386;2022-07-18T10:36:40;4.13;;;1.73;;
10412;SDS011;5252;42.602;23.386;2022-07-18T10:39:07;1.67;;;1.40;;
10412;SDS011;5252;42.602;23.386;2022-07-18T10:42:11;1.60;;;1.40;;
10412;SDS011;5252;42.602;23.386;2022-07-18T10:44:32;2.00;;;1.23;;
10412;SDS011;5252;42.602;23.386;2022-07-18T10:47:06;1.60;;;1.40;;
10412;SDS011;5252;42.602;23.386;2022-07-18T11:00:42;3.97;;;1.52;;
10412;SDS011;5252;42.602;23.386;2022-07-18T11:03:10;3.70;;;1.50;;
10412;SDS011;5252;42.602;23.386;2022-07-18T11:05:41;1.30;;;1.20;;
10412;SDS011;5252;42.602;23.386;2022-07-18T11:08:17;2.25;;;1.30;;
10412;SDS011;5252;42.602;23.386;2022-07-18T11:11:03;2.85;;;1.50;;
10412;SDS011;5252;42.602;23.386;2022-07-18T11:13:30;2.90;;;1.50;;
10412;SDS011;5252;42.602;23.386;2022-07-18T11:15:59;2.22;;;1.25;;
10412;SDS011;5252;42.602;23.386;2022-07-18T11:18:27;2.55;;;1.40;;
10412;SDS011;5252;42.602;23.386;2022-07-18T11:20:54;4.40;;;1.35;;
10412;SDS011;5252;42.602;23.386;2022-07-18T11:23:22;2.03;;;1.27;;
10412;SDS011;5252;42.602;23.386;2022-07-18T11:25:49;8.40;;;1.30;;
10412;SDS011;5252;42.602;23.386;2022-07-18T11:28:16;2.05;;;1.20;;
10412;SDS011;5252;42.602;23.386;2022-07-18T11:30:44;1.75;;;1.10;;
10412;SDS011;5252;42.602;23.386;2022-07-18T11:33:22;1.98;;;1.20;;
10412;SDS011;5252;42.602;23.386;2022-07-18T11:35:49;3.17;;;1.30;;
10412;SDS011;5252;42.602;23.386;2022-07-18T11:38:16;1.42;;;1.08;;
10412;SDS011;5252;42.602;23.386;2022-07-18T11:40:52;4.72;;;1.33;;
10412;SDS011;5252;42.602;23.386;2022-07-18T11:43:22;1.38;;;1.27;;
10412;SDS011;5252;42.602;23.386;2022-07-18T11:45:58;6.30;;;1.60;;
10412;SDS011;5252;42.602;23.386;2022-07-18T11:48:26;2.03;;;1.30;;
10412;SDS011;5252;42.602;23.386;2022-07-18T11:50:53;3.63;;;1.40;;
10412;SDS011;5252;42.602;23.386;2022-07-18T11:53:20;2.90;;;1.70;;
10412;SDS011;5252;42.602;23.386;2022-07-18T11:55:47;3.80;;;1.58;;
10412;SDS011;5252;42.602;23.386;2022-07-18T11:58:15;6.07;;;1.40;;
10412;SDS011;5252;42.602;23.386;2022-07-18T12:00:42;4.10;;;1.50;;
10412;SDS011;5252;42.602;23.386;2022-07-18T12:03:10;1.33;;;1.20;;
10412;SDS011;5252;42.602;23.386;2022-07-18T12:05:39;2.53;;;1.40;;
10412;SDS011;5252;42.602;23.386;2022-07-18T12:08:28;5.78;;;1.42;;
10412;SDS011;5252;42.602;23.386;2022-07-18T12:11:08;3.53;;;1.33;;
10412;SDS011;5252;42.602;23.386;2022-07-18T12:13:39;3.90;;;1.33;;
10412;SDS011;5252;42.602;23.386;2022-07-18T12:16:05;3.65;;;1.50;;
10412;SDS011;5252;42.602;23.386;2022-07-18T12:18:32;2.65;;;1.40;;
10412;SDS011;5252;42.602;23.386;2022-07-18T12:21:07;1.40;;;1.30;;
10412;SDS011;5252;42.602;23.386;2022-07-18T12:23:34;1.80;;;1.20;;
10412;SDS011;5252;42.602;23.386;2022-07-18T12:26:00;2.08;;;1.38;;
10412;SDS011;5252;42.602;23.386;2022-07-18T12:28:27;1.98;;;1.20;;
10412;SDS011;5252;42.602;23.386;2022-07-18T12:30:55;3.40;;;1.17;;
10412;SDS011;5252;42.602;23.386;2022-07-18T12:33:21;2.17;;;1.38;;
10412;SDS011;5252;42.602;23.386;2022-07-18T12:35:54;5.05;;;1.20;;
10412;SDS011;5252;42.602;23.386;2022-07-18T12:38:22;3.67;;;1.35;;
10412;SDS011;5252;42.602;23.386;2022-07-18T12:40:50;3.53;;;1.30;;
10412;SDS011;5252;42.602;23.386;2022-07-18T12:43:22;1.75;;;1.25;;
10412;SDS011;5252;42.602;23.386;2022-07-18T12:45:49;1.88;;;1.42;;
10412;SDS011;5252;42.602;23.386;2022-07-18T12:48:16;2.17;;;1.48;;
10412;SDS011;5252;42.602;23.386;2022-07-18T12:50:43;2.35;;;1.30;;
10412;SDS011;5252;42.602;23.386;2022-07-18T12:53:10;2.95;;;1.17;;
10412;SDS011;5252;42.602;23.386;2022-07-18T12:55:38;1.50;;;1.10;;
10412;SDS011;5252;42.602;23.386;2022-07-18T12:58:05;4.05;;;1.30;;
10412;SDS011;5252;42.602;23.386;2022-07-18T13:00:32;1.73;;;1.30;;
10412;SDS011;5252;42.602;23.386;2022-07-18T13:02:59;1.63;;;1.05;;
10412;SDS011;5252;42.602;23.386;2022-07-18T13:05:26;2.10;;;1.40;;
10412;SDS011;5252;42.602;23.386;2022-07-18T13:07:53;6.80;;;1.60;;
10412;SDS011;5252;42.602;23.386;2022-07-18T13:10:20;4.07;;;1.35;;
10412;SDS011;5252;42.602;23.386;2022-07-18T13:12:48;5.28;;;1.58;;
10412;SDS011;5252;42.602;23.386;2022-07-18T13:15:15;2.83;;;1.42;;
10412;SDS011;5252;42.602;23.386;2022-07-18T13:17:43;2.70;;;1.40;;
10412;SDS011;5252;42.602;23.386;2022-07-18T13:20:10;2.10;;;1.20;;
10412;SDS011;5252;42.602;23.386;2022-07-18T13:22:37;3.72;;;1.45;;
10412;SDS011;5252;42.602;23.386;2022-07-18T13:25:04;4.28;;;1.70;;
10412;SDS011;5252;42.602;23.386;2022-07-18T13:27:31;1.70;;;1.48;;
10412;SDS011;5252;42.602;23.386;2022-07-18T13:29:59;2.75;;;1.20;;
10412;SDS011;5252;42.602;23.386;2022-07-18T13:32:27;1.83;;;1.40;;
10412;SDS011;5252;42.602;23.386;2022-07-18T13:34:54;1.77;;;1.27;;
10412;SDS011;5252;42.602;23.386;2022-07-18T13:37:20;3.08;;;1.50;;
10412;SDS011;5252;42.602;23.386;2022-07-18T13:39:47;2.40;;;1.77;;
10412;SDS011;5252;42.602;23.386;2022-07-18T13:42:13;4.70;;;1.88;;
10412;SDS011;5252;42.602;23.386;2022-07-18T13:44:40;4.80;;;1.85;;
10412;SDS011;5252;42.602;23.386;2022-07-18T13:47:08;3.28;;;1.75;;
10412;SDS011;5252;42.602;23.386;2022-07-18T13:49:35;6.75;;;1.85;;
10412;SDS011;5252;42.602;23.386;2022-07-18T13:52:01;3.72;;;1.75;;
10412;SDS011;5252;42.602;23.386;2022-07-18T13:54:28;6.57;;;1.70;;
10412;SDS011;5252;42.602;23.386;2022-07-18T13:56:54;2.50;;;1.45;;
10412;SDS011;5252;42.602;23.386;2022-07-18T13:59:21;6.78;;;2.30;;
10412;SDS011;5252;42.602;23.386;2022-07-18T14:01:48;4.20;;;1.80;;
10412;SDS011;5252;42.602;23.386;2022-07-18T14:04:16;3.17;;;1.90;;
10412;SDS011;5252;42.602;23.386;2022-07-18T14:06:43;5.03;;;1.60;;
10412;SDS011;5252;42.602;23.386;2022-07-18T14:09:10;2.10;;;1.85;;
10412;SDS011;5252;42.602;23.386;2022-07-18T14:11:36;3.67;;;1.92;;
10412;SDS011;5252;42.602;23.386;2022-07-18T14:14:03;3.28;;;1.67;;
10412;SDS011;5252;42.602;23.386;2022-07-18T14:16:30;3.97;;;1.65;;
10412;SDS011;5252;42.602;23.386;2022-07-18T14:18:57;4.32;;;1.73;;
10412;SDS011;5252;42.602;23.386;2022-07-18T14:21:25;1.60;;;1.42;;
10412;SDS011;5252;42.602;23.386;2022-07-18T14:23:52;4.25;;;1.75;;
10412;SDS011;5252;42.602;23.386;2022-07-18T14:26:19;2.15;;;1.60;;
10412;SDS011;5252;42.602;23.386;2022-07-18T14:28:46;3.88;;;1.95;;
10412;SDS011;5252;42.602;23.386;2022-07-18T14:31:12;5.65;;;1.65;;
10412;SDS011;5252;42.602;23.386;2022-07-18T14:33:39;2.78;;;2.00;;
10412;SDS011;5252;42.602;23.386;2022-07-18T14:36:05;4.32;;;2.40;;
10412;SDS011;5252;42.602;23.386;2022-07-18T14:38:33;4.15;;;2.20;;
10412;SDS011;5252;42.602;23.386;2022-07-18T14:41:00;2.40;;;1.80;;
10412;SDS011;5252;42.602;23.386;2022-07-18T14:43:27;4.57;;;2.10;;
10412;SDS011;5252;42.602;23.386;2022-07-18T14:45:53;5.43;;;2.45;;
10412;SDS011;5252;42.602;23.386;2022-07-18T14:48:20;2.55;;;2.20;;
10412;SDS011;5252;42.602;23.386;2022-07-18T14:50:46;2.30;;;2.00;;
10412;SDS011;5252;42.602;23.386;2022-07-18T14:53:13;4.15;;;2.15;;
10412;SDS011;5252;42.602;23.386;2022-07-18T14:55:41;2.30;;;1.75;;
10412;SDS011;5252;42.602;23.386;2022-07-18T14:58:08;4.90;;;1.90;;
10412;SDS011;5252;42.602;23.386;2022-07-18T15:00:35;3.40;;;2.05;;
10412;SDS011;5252;42.602;23.386;2022-07-18T15:03:02;5.63;;;1.80;;
10412;SDS011;5252;42.602;23.386;2022-07-18T15:05:28;3.78;;;1.80;;
10412;SDS011;5252;42.602;23.386;2022-07-18T15:07:55;2.65;;;1.98;;
10412;SDS011;5252;42.602;23.386;2022-07-18T15:10:22;3.88;;;1.90;;
10412;SDS011;5252;42.602;23.386;2022-07-18T15:12:49;3.80;;;1.90;;
10412;SDS011;5252;42.602;23.386;2022-07-18T15:15:16;6.00;;;2.15;;
10412;SDS011;5252;42.602;23.386;2022-07-18T15:17:43;5.40;;;2.00;;
10412;SDS011;5252;42.602;23.386;2022-07-18T15:20:10;3.53;;;1.85;;
10412;SDS011;5252;42.602;23.386;2022-07-18T15:22:37;3.20;;;2.00;;
10412;SDS011;5252;42.602;23.386;2022-07-18T15:25:03;3.17;;;1.70;;